sensor_id;sensor_type;location;lat;lon;timestamp;P1;durP1;ratioP1;P2;durP2;ratioP2
69979;SDS011;57318;56.232;43.944;2023-07-13T00:01:55;8.40;;;4.43;;
69979;SDS011;57318;56.232;43.944;2023-07-13T00:04:23;7.63;;;4.60;;
69979;SDS011;57318;56.232;43.944;2023-07-13T00:06:50;12.27;;;4.78;;
69979;SDS011;57318;56.232;43.944;2023-07-13T00:09:17;8.85;;;4.60;;
69979;SDS011;57318;56.232;43.944;2023-07-13T00:11:44;10.70;;;4.90;;
69979;SDS011;57318;56.232;43.944;2023-07-13T00:14:13;8.98;;;4.25;;
69979;SDS011;57318;56.232;43.944;2023-07-13T00:16:40;8.13;;;4.93;;
69979;SDS011;57318;56.232;43.944;2023-07-13T00:19:09;5.95;;;4.15;;
69979;SDS011;57318;56.232;43.944;2023-07-13T00:21:37;10.32;;;4.57;;
69979;SDS011;57318;56.232;43.944;2023-07-13T00:26:29;9.82;;;4.85;;
69979;SDS011;57318;56.232;43.944;2023-07-13T00:28:55;11.33;;;4.60;;
69979;SDS011;57318;56.232;43.944;2023-07-13T00:31:20;11.23;;;4.93;;
69979;SDS011;57318;56.232;43.944;2023-07-13T00:33:46;8.87;;;5.07;;
69979;SDS011;57318;56.232;43.944;2023-07-13T00:36:12;9.57;;;4.87;;
69979;SDS011;57318;56.232;43.944;2023-07-13T00:38:38;8.30;;;5.35;;
69979;SDS011;57318;56.232;43.944;2023-07-13T00:41:04;10.67;;;5.63;;
69979;SDS011;57318;56.232;43.944;2023-07-13T00:43:30;9.95;;;5.18;;
69979;SDS011;57318;56.232;43.944;2023-07-13T00:48:23;10.23;;;5.83;;
69979;SDS011;57318;56.232;43.944;2023-07-13T00:50:53;11.48;;;4.63;;
69979;SDS011;57318;56.232;43.944;2023-07-13T00:53:22;12.50;;;5.38;;
69979;SDS011;57318;56.232;43.944;2023-07-13T00:55:49;11.27;;;5.70;;
69979;SDS011;57318;56.232;43.944;2023-07-13T00:58:18;10.05;;;5.15;;
69979;SDS011;57318;56.232;43.944;2023-07-13T01:00:44;8.63;;;5.40;;
69979;SDS011;57318;56.232;43.944;2023-07-13T01:03:12;13.38;;;5.10;;
69979;SDS011;57318;56.232;43.944;2023-07-13T01:05:38;7.50;;;4.87;;
69979;SDS011;57318;56.232;43.944;2023-07-13T01:08:04;10.23;;;5.53;;
69979;SDS011;57318;56.232;43.944;2023-07-13T01:10:31;11.65;;;5.63;;
69979;SDS011;57318;56.232;43.944;2023-07-13T01:13:05;9.18;;;5.38;;
69979;SDS011;57318;56.232;43.944;2023-07-13T01:15:35;11.68;;;6.15;;
69979;SDS011;57318;56.232;43.944;2023-07-13T01:18:03;11.93;;;5.47;;
69979;SDS011;57318;56.232;43.944;2023-07-13T01:20:30;10.50;;;5.43;;
69979;SDS011;57318;56.232;43.944;2023-07-13T01:23:09;12.07;;;5.72;;
69979;SDS011;57318;56.232;43.944;2023-07-13T01:25:39;9.93;;;5.50;;
69979;SDS011;57318;56.232;43.944;2023-07-13T01:28:05;17.20;;;6.37;;
69979;SDS011;57318;56.232;43.944;2023-07-13T01:30:38;14.82;;;5.63;;
69979;SDS011;57318;56.232;43.944;2023-07-13T01:33:06;12.65;;;5.65;;
69979;SDS011;57318;56.232;43.944;2023-07-13T01:35:33;11.60;;;5.60;;
69979;SDS011;57318;56.232;43.944;2023-07-13T01:37:59;10.70;;;5.50;;
69979;SDS011;57318;56.232;43.944;2023-07-13T01:40:27;11.27;;;5.95;;
69979;SDS011;57318;56.232;43.944;2023-07-13T01:42:53;9.38;;;5.25;;
69979;SDS011;57318;56.232;43.944;2023-07-13T01:45:18;10.30;;;5.47;;
69979;SDS011;57318;56.232;43.944;2023-07-13T01:47:44;12.57;;;6.40;;
69979;SDS011;57318;56.232;43.944;2023-07-13T01:50:12;8.63;;;5.38;;
69979;SDS011;57318;56.232;43.944;2023-07-13T01:52:38;18.07;;;5.73;;
69979;SDS011;57318;56.232;43.944;2023-07-13T01:55:04;11.27;;;5.27;;
69979;SDS011;57318;56.232;43.944;2023-07-13T01:57:30;8.32;;;4.88;;
69979;SDS011;57318;56.232;43.944;2023-07-13T01:59:56;7.23;;;5.17;;
69979;SDS011;57318;56.232;43.944;2023-07-13T02:02:22;15.63;;;5.50;;
69979;SDS011;57318;56.232;43.944;2023-07-13T02:04:47;11.33;;;5.30;;
69979;SDS011;57318;56.232;43.944;2023-07-13T02:07:13;8.03;;;5.07;;
69979;SDS011;57318;56.232;43.944;2023-07-13T02:12:07;12.65;;;5.22;;
69979;SDS011;57318;56.232;43.944;2023-07-13T02:14:34;8.05;;;4.95;;
69979;SDS011;57318;56.232;43.944;2023-07-13T02:17:01;12.20;;;5.22;;
69979;SDS011;57318;56.232;43.944;2023-07-13T02:19:27;13.35;;;6.03;;
69979;SDS011;57318;56.232;43.944;2023-07-13T02:21:52;10.50;;;5.70;;
69979;SDS011;57318;56.232;43.944;2023-07-13T02:24:18;9.43;;;5.83;;
69979;SDS011;57318;56.232;43.944;2023-07-13T02:26:46;10.43;;;5.40;;
69979;SDS011;57318;56.232;43.944;2023-07-13T02:29:13;9.98;;;5.50;;
69979;SDS011;57318;56.232;43.944;2023-07-13T02:31:39;9.82;;;5.25;;
69979;SDS011;57318;56.232;43.944;2023-07-13T02:34:05;9.45;;;5.45;;
69979;SDS011;57318;56.232;43.944;2023-07-13T02:36:31;8.03;;;5.07;;
69979;SDS011;57318;56.232;43.944;2023-07-13T02:41:26;7.60;;;4.93;;
69979;SDS011;57318;56.232;43.944;2023-07-13T02:43:52;10.10;;;5.70;;
69979;SDS011;57318;56.232;43.944;2023-07-13T02:46:18;11.80;;;5.97;;
69979;SDS011;57318;56.232;43.944;2023-07-13T02:48:45;9.30;;;5.00;;
69979;SDS011;57318;56.232;43.944;2023-07-13T02:51:11;8.20;;;5.20;;
69979;SDS011;57318;56.232;43.944;2023-07-13T02:53:37;8.83;;;5.27;;
69979;SDS011;57318;56.232;43.944;2023-07-13T02:56:04;13.20;;;5.18;;
69979;SDS011;57318;56.232;43.944;2023-07-13T02:58:30;8.85;;;5.40;;
69979;SDS011;57318;56.232;43.944;2023-07-13T03:00:56;11.60;;;5.57;;
69979;SDS011;57318;56.232;43.944;2023-07-13T03:03:30;6.43;;;4.78;;
69979;SDS011;57318;56.232;43.944;2023-07-13T03:06:00;12.23;;;4.40;;
69979;SDS011;57318;56.232;43.944;2023-07-13T03:08:27;7.32;;;4.32;;
69979;SDS011;57318;56.232;43.944;2023-07-13T03:11:03;7.57;;;4.60;;
69979;SDS011;57318;56.232;43.944;2023-07-13T03:13:30;8.45;;;4.78;;
69979;SDS011;57318;56.232;43.944;2023-07-13T03:15:56;7.70;;;4.32;;
69979;SDS011;57318;56.232;43.944;2023-07-13T03:18:29;8.37;;;4.30;;
69979;SDS011;57318;56.232;43.944;2023-07-13T03:20:55;6.07;;;4.30;;
69979;SDS011;57318;56.232;43.944;2023-07-13T03:23:21;6.15;;;4.15;;
69979;SDS011;57318;56.232;43.944;2023-07-13T03:25:47;6.43;;;4.38;;
69979;SDS011;57318;56.232;43.944;2023-07-13T03:28:14;6.32;;;3.85;;
69979;SDS011;57318;56.232;43.944;2023-07-13T03:30:42;5.30;;;3.78;;
69979;SDS011;57318;56.232;43.944;2023-07-13T03:33:08;7.85;;;4.13;;
69979;SDS011;57318;56.232;43.944;2023-07-13T03:35:34;7.57;;;4.17;;
69979;SDS011;57318;56.232;43.944;2023-07-13T03:38:00;8.85;;;4.20;;
69979;SDS011;57318;56.232;43.944;2023-07-13T03:40:27;5.28;;;4.03;;
69979;SDS011;57318;56.232;43.944;2023-07-13T03:42:53;7.47;;;4.00;;
69979;SDS011;57318;56.232;43.944;2023-07-13T03:45:19;5.37;;;3.77;;
69979;SDS011;57318;56.232;43.944;2023-07-13T03:47:45;7.80;;;4.07;;
69979;SDS011;57318;56.232;43.944;2023-07-13T03:50:10;5.60;;;4.13;;
69979;SDS011;57318;56.232;43.944;2023-07-13T03:52:36;6.80;;;3.47;;
69979;SDS011;57318;56.232;43.944;2023-07-13T03:55:02;5.90;;;3.72;;
69979;SDS011;57318;56.232;43.944;2023-07-13T03:57:32;9.63;;;4.18;;
69979;SDS011;57318;56.232;43.944;2023-07-13T04:00:00;5.00;;;3.58;;
69979;SDS011;57318;56.232;43.944;2023-07-13T04:02:25;5.07;;;3.60;;
69979;SDS011;57318;56.232;43.944;2023-07-13T04:04:51;7.20;;;3.70;;
69979;SDS011;57318;56.232;43.944;2023-07-13T04:07:18;6.00;;;3.47;;
69979;SDS011;57318;56.232;43.944;2023-07-13T04:09:44;6.33;;;3.50;;
69979;SDS011;57318;56.232;43.944;2023-07-13T04:12:10;5.43;;;3.50;;
69979;SDS011;57318;56.232;43.944;2023-07-13T04:14:35;5.30;;;3.43;;
69979;SDS011;57318;56.232;43.944;2023-07-13T04:17:01;5.50;;;3.57;;
69979;SDS011;57318;56.232;43.944;2023-07-13T04:19:27;6.50;;;3.73;;
69979;SDS011;57318;56.232;43.944;2023-07-13T04:21:53;5.03;;;3.53;;
69979;SDS011;57318;56.232;43.944;2023-07-13T04:24:18;5.23;;;3.27;;
69979;SDS011;57318;56.232;43.944;2023-07-13T04:26:44;6.70;;;3.63;;
69979;SDS011;57318;56.232;43.944;2023-07-13T04:29:10;3.97;;;3.33;;
69979;SDS011;57318;56.232;43.944;2023-07-13T04:31:36;3.93;;;2.73;;
69979;SDS011;57318;56.232;43.944;2023-07-13T04:34:02;6.47;;;3.40;;
69979;SDS011;57318;56.232;43.944;2023-07-13T04:36:28;6.88;;;3.35;;
69979;SDS011;57318;56.232;43.944;2023-07-13T04:38:54;5.50;;;2.90;;
69979;SDS011;57318;56.232;43.944;2023-07-13T04:41:20;6.17;;;3.00;;
69979;SDS011;57318;56.232;43.944;2023-07-13T04:43:47;3.75;;;2.92;;
69979;SDS011;57318;56.232;43.944;2023-07-13T04:46:14;4.22;;;3.20;;
69979;SDS011;57318;56.232;43.944;2023-07-13T04:48:43;4.40;;;3.03;;
69979;SDS011;57318;56.232;43.944;2023-07-13T04:51:09;7.18;;;3.47;;
69979;SDS011;57318;56.232;43.944;2023-07-13T04:53:35;3.88;;;3.28;;
69979;SDS011;57318;56.232;43.944;2023-07-13T04:56:01;4.03;;;3.00;;
69979;SDS011;57318;56.232;43.944;2023-07-13T04:58:27;4.40;;;2.80;;
69979;SDS011;57318;56.232;43.944;2023-07-13T05:00:53;4.83;;;2.87;;
69979;SDS011;57318;56.232;43.944;2023-07-13T05:03:26;3.78;;;2.70;;
69979;SDS011;57318;56.232;43.944;2023-07-13T05:05:59;4.40;;;2.93;;
69979;SDS011;57318;56.232;43.944;2023-07-13T05:10:55;3.35;;;2.70;;
69979;SDS011;57318;56.232;43.944;2023-07-13T05:13:21;5.57;;;2.92;;
69979;SDS011;57318;56.232;43.944;2023-07-13T05:18:44;4.47;;;2.88;;
69979;SDS011;57318;56.232;43.944;2023-07-13T05:21:10;3.80;;;2.60;;
69979;SDS011;57318;56.232;43.944;2023-07-13T05:23:36;5.78;;;2.70;;
69979;SDS011;57318;56.232;43.944;2023-07-13T05:26:03;4.28;;;2.50;;
69979;SDS011;57318;56.232;43.944;2023-07-13T05:28:30;4.15;;;2.45;;
69979;SDS011;57318;56.232;43.944;2023-07-13T05:30:56;4.70;;;2.78;;
69979;SDS011;57318;56.232;43.944;2023-07-13T05:33:25;5.13;;;2.45;;
69979;SDS011;57318;56.232;43.944;2023-07-13T05:35:51;3.95;;;2.42;;
69979;SDS011;57318;56.232;43.944;2023-07-13T05:38:17;6.33;;;3.13;;
69979;SDS011;57318;56.232;43.944;2023-07-13T05:40:43;3.87;;;2.30;;
69979;SDS011;57318;56.232;43.944;2023-07-13T05:43:10;5.43;;;2.90;;
69979;SDS011;57318;56.232;43.944;2023-07-13T05:45:36;2.90;;;2.47;;
69979;SDS011;57318;56.232;43.944;2023-07-13T05:48:01;3.97;;;2.43;;
69979;SDS011;57318;56.232;43.944;2023-07-13T05:50:27;3.53;;;2.27;;
69979;SDS011;57318;56.232;43.944;2023-07-13T05:52:53;4.70;;;2.80;;
69979;SDS011;57318;56.232;43.944;2023-07-13T05:55:19;4.73;;;2.60;;
69979;SDS011;57318;56.232;43.944;2023-07-13T05:57:45;5.53;;;2.67;;
69979;SDS011;57318;56.232;43.944;2023-07-13T06:00:11;4.60;;;2.40;;
69979;SDS011;57318;56.232;43.944;2023-07-13T06:02:38;5.07;;;2.55;;
69979;SDS011;57318;56.232;43.944;2023-07-13T06:05:04;5.03;;;2.47;;
69979;SDS011;57318;56.232;43.944;2023-07-13T06:07:30;8.32;;;3.00;;
69979;SDS011;57318;56.232;43.944;2023-07-13T06:09:56;6.40;;;2.90;;
69979;SDS011;57318;56.232;43.944;2023-07-13T06:12:21;5.07;;;2.67;;
69979;SDS011;57318;56.232;43.944;2023-07-13T06:14:47;5.88;;;2.70;;
69979;SDS011;57318;56.232;43.944;2023-07-13T06:17:13;3.17;;;2.50;;
69979;SDS011;57318;56.232;43.944;2023-07-13T06:19:39;3.40;;;2.80;;
69979;SDS011;57318;56.232;43.944;2023-07-13T06:22:05;4.85;;;3.20;;
69979;SDS011;57318;56.232;43.944;2023-07-13T06:24:32;4.97;;;2.75;;
69979;SDS011;57318;56.232;43.944;2023-07-13T06:26:58;4.10;;;2.60;;
69979;SDS011;57318;56.232;43.944;2023-07-13T06:29:24;2.30;;;2.10;;
69979;SDS011;57318;56.232;43.944;2023-07-13T06:31:49;4.13;;;2.40;;
69979;SDS011;57318;56.232;43.944;2023-07-13T06:34:15;4.45;;;2.45;;
69979;SDS011;57318;56.232;43.944;2023-07-13T06:36:41;4.73;;;2.50;;
69979;SDS011;57318;56.232;43.944;2023-07-13T06:39:07;5.50;;;2.47;;
69979;SDS011;57318;56.232;43.944;2023-07-13T06:41:33;4.25;;;2.28;;
69979;SDS011;57318;56.232;43.944;2023-07-13T06:44:00;3.60;;;2.38;;
69979;SDS011;57318;56.232;43.944;2023-07-13T06:46:26;4.77;;;2.43;;
69979;SDS011;57318;56.232;43.944;2023-07-13T06:48:55;4.25;;;2.30;;
69979;SDS011;57318;56.232;43.944;2023-07-13T06:51:21;3.58;;;2.30;;
69979;SDS011;57318;56.232;43.944;2023-07-13T06:53:47;4.17;;;2.10;;
69979;SDS011;57318;56.232;43.944;2023-07-13T06:56:13;6.37;;;2.20;;
69979;SDS011;57318;56.232;43.944;2023-07-13T06:58:39;4.30;;;2.40;;
69979;SDS011;57318;56.232;43.944;2023-07-13T07:01:05;2.87;;;2.30;;
69979;SDS011;57318;56.232;43.944;2023-07-13T07:03:31;5.10;;;2.40;;
69979;SDS011;57318;56.232;43.944;2023-07-13T07:06:16;2.85;;;2.20;;
69979;SDS011;57318;56.232;43.944;2023-07-13T07:08:44;5.60;;;2.60;;
69979;SDS011;57318;56.232;43.944;2023-07-13T07:11:12;3.03;;;2.35;;
69979;SDS011;57318;56.232;43.944;2023-07-13T07:13:39;3.08;;;2.03;;
69979;SDS011;57318;56.232;43.944;2023-07-13T07:16:05;3.10;;;2.10;;
69979;SDS011;57318;56.232;43.944;2023-07-13T07:18:31;2.97;;;2.00;;
69979;SDS011;57318;56.232;43.944;2023-07-13T07:20:57;3.80;;;2.20;;
69979;SDS011;57318;56.232;43.944;2023-07-13T07:23:23;2.73;;;2.27;;
69979;SDS011;57318;56.232;43.944;2023-07-13T07:25:49;2.07;;;1.83;;
69979;SDS011;57318;56.232;43.944;2023-07-13T07:28:16;5.35;;;2.10;;
69979;SDS011;57318;56.232;43.944;2023-07-13T07:30:46;4.00;;;2.30;;
69979;SDS011;57318;56.232;43.944;2023-07-13T07:33:12;3.72;;;2.40;;
69979;SDS011;57318;56.232;43.944;2023-07-13T07:35:38;3.40;;;2.20;;
69979;SDS011;57318;56.232;43.944;2023-07-13T07:38:04;3.40;;;2.50;;
69979;SDS011;57318;56.232;43.944;2023-07-13T07:40:30;5.73;;;2.60;;
69979;SDS011;57318;56.232;43.944;2023-07-13T07:42:56;4.00;;;2.30;;
69979;SDS011;57318;56.232;43.944;2023-07-13T07:45:22;2.95;;;2.33;;
69979;SDS011;57318;56.232;43.944;2023-07-13T07:47:48;2.60;;;2.35;;
69979;SDS011;57318;56.232;43.944;2023-07-13T07:50:14;3.75;;;2.50;;
69979;SDS011;57318;56.232;43.944;2023-07-13T07:52:40;3.03;;;2.17;;
69979;SDS011;57318;56.232;43.944;2023-07-13T07:55:07;4.53;;;2.40;;
69979;SDS011;57318;56.232;43.944;2023-07-13T07:59:59;3.60;;;2.42;;
69979;SDS011;57318;56.232;43.944;2023-07-13T08:02:25;2.70;;;2.23;;
69979;SDS011;57318;56.232;43.944;2023-07-13T08:04:51;3.83;;;2.50;;
69979;SDS011;57318;56.232;43.944;2023-07-13T08:09:43;4.95;;;2.47;;
69979;SDS011;57318;56.232;43.944;2023-07-13T08:12:09;6.40;;;2.67;;
69979;SDS011;57318;56.232;43.944;2023-07-13T08:14:35;3.42;;;2.40;;
69979;SDS011;57318;56.232;43.944;2023-07-13T08:17:01;3.17;;;2.80;;
69979;SDS011;57318;56.232;43.944;2023-07-13T08:19:27;3.22;;;2.30;;
69979;SDS011;57318;56.232;43.944;2023-07-13T08:21:55;3.33;;;2.40;;
69979;SDS011;57318;56.232;43.944;2023-07-13T08:24:24;4.15;;;2.40;;
69979;SDS011;57318;56.232;43.944;2023-07-13T08:26:50;3.17;;;2.63;;
69979;SDS011;57318;56.232;43.944;2023-07-13T08:29:16;5.32;;;2.75;;
69979;SDS011;57318;56.232;43.944;2023-07-13T08:31:42;7.07;;;2.90;;
69979;SDS011;57318;56.232;43.944;2023-07-13T08:34:08;5.37;;;2.80;;
69979;SDS011;57318;56.232;43.944;2023-07-13T08:36:41;5.30;;;2.80;;
69979;SDS011;57318;56.232;43.944;2023-07-13T08:39:07;3.28;;;2.85;;
69979;SDS011;57318;56.232;43.944;2023-07-13T08:41:32;5.30;;;3.20;;
69979;SDS011;57318;56.232;43.944;2023-07-13T08:43:59;6.45;;;2.95;;
69979;SDS011;57318;56.232;43.944;2023-07-13T08:49:07;5.22;;;3.20;;
69979;SDS011;57318;56.232;43.944;2023-07-13T08:51:50;6.65;;;3.33;;
69979;SDS011;57318;56.232;43.944;2023-07-13T08:54:41;4.90;;;3.15;;
69979;SDS011;57318;56.232;43.944;2023-07-13T08:57:13;7.43;;;3.38;;
69979;SDS011;57318;56.232;43.944;2023-07-13T08:59:45;3.30;;;2.85;;
69979;SDS011;57318;56.232;43.944;2023-07-13T09:02:26;5.30;;;2.90;;
69979;SDS011;57318;56.232;43.944;2023-07-13T09:15:45;4.50;;;2.83;;
69979;SDS011;57318;56.232;43.944;2023-07-13T09:20:48;3.53;;;2.78;;
69979;SDS011;57318;56.232;43.944;2023-07-13T09:23:21;3.28;;;2.67;;
69979;SDS011;57318;56.232;43.944;2023-07-13T09:25:49;5.10;;;2.45;;
69979;SDS011;57318;56.232;43.944;2023-07-13T09:28:24;5.07;;;2.80;;
69979;SDS011;57318;56.232;43.944;2023-07-13T09:31:06;5.05;;;2.78;;
69979;SDS011;57318;56.232;43.944;2023-07-13T09:33:48;4.57;;;2.47;;
69979;SDS011;57318;56.232;43.944;2023-07-13T09:36:21;3.22;;;2.45;;
69979;SDS011;57318;56.232;43.944;2023-07-13T09:47:03;3.47;;;2.80;;
69979;SDS011;57318;56.232;43.944;2023-07-13T09:49:41;5.13;;;2.70;;
69979;SDS011;57318;56.232;43.944;2023-07-13T09:52:12;2.90;;;2.50;;
69979;SDS011;57318;56.232;43.944;2023-07-13T09:54:44;6.18;;;3.20;;
69979;SDS011;57318;56.232;43.944;2023-07-13T09:57:22;3.75;;;2.90;;
69979;SDS011;57318;56.232;43.944;2023-07-13T09:59:50;4.72;;;2.90;;
69979;SDS011;57318;56.232;43.944;2023-07-13T10:05:14;4.05;;;2.70;;
69979;SDS011;57318;56.232;43.944;2023-07-13T10:07:44;6.63;;;2.70;;
69979;SDS011;57318;56.232;43.944;2023-07-13T10:10:18;3.67;;;2.70;;
69979;SDS011;57318;56.232;43.944;2023-07-13T10:12:46;4.35;;;2.97;;
69979;SDS011;57318;56.232;43.944;2023-07-13T10:15:17;3.50;;;2.50;;
69979;SDS011;57318;56.232;43.944;2023-07-13T10:17:44;3.78;;;2.80;;
69979;SDS011;57318;56.232;43.944;2023-07-13T10:20:11;3.90;;;2.65;;
69979;SDS011;57318;56.232;43.944;2023-07-13T10:25:33;4.65;;;2.45;;
69979;SDS011;57318;56.232;43.944;2023-07-13T10:30:46;5.18;;;2.80;;
69979;SDS011;57318;56.232;43.944;2023-07-13T10:33:14;3.85;;;2.63;;
69979;SDS011;57318;56.232;43.944;2023-07-13T10:35:42;5.22;;;2.85;;
69979;SDS011;57318;56.232;43.944;2023-07-13T10:38:12;4.07;;;2.90;;
69979;SDS011;57318;56.232;43.944;2023-07-13T10:40:45;5.32;;;3.00;;
69979;SDS011;57318;56.232;43.944;2023-07-13T10:43:23;4.63;;;2.80;;
69979;SDS011;57318;56.232;43.944;2023-07-13T10:45:53;3.80;;;2.80;;
69979;SDS011;57318;56.232;43.944;2023-07-13T10:48:20;3.08;;;2.50;;
69979;SDS011;57318;56.232;43.944;2023-07-13T10:50:52;3.40;;;2.55;;
69979;SDS011;57318;56.232;43.944;2023-07-13T10:53:30;6.78;;;2.33;;
69979;SDS011;57318;56.232;43.944;2023-07-13T10:56:05;4.07;;;2.30;;
69979;SDS011;57318;56.232;43.944;2023-07-13T10:58:44;6.78;;;2.10;;
69979;SDS011;57318;56.232;43.944;2023-07-13T11:01:11;3.85;;;2.38;;
69979;SDS011;57318;56.232;43.944;2023-07-13T11:06:37;4.45;;;2.10;;
69979;SDS011;57318;56.232;43.944;2023-07-13T11:09:19;2.90;;;2.10;;
69979;SDS011;57318;56.232;43.944;2023-07-13T11:12:01;3.30;;;2.15;;
69979;SDS011;57318;56.232;43.944;2023-07-13T11:20:09;3.40;;;2.17;;
69979;SDS011;57318;56.232;43.944;2023-07-13T11:22:45;4.07;;;2.00;;
69979;SDS011;57318;56.232;43.944;2023-07-13T11:28:41;2.67;;;2.03;;
69979;SDS011;57318;56.232;43.944;2023-07-13T11:36:14;2.40;;;2.10;;
69979;SDS011;57318;56.232;43.944;2023-07-13T11:41:45;2.40;;;1.95;;
69979;SDS011;57318;56.232;43.944;2023-07-13T11:44:18;3.03;;;2.08;;
69979;SDS011;57318;56.232;43.944;2023-07-13T11:46:50;2.55;;;2.00;;
69979;SDS011;57318;56.232;43.944;2023-07-13T11:49:19;3.67;;;2.40;;
69979;SDS011;57318;56.232;43.944;2023-07-13T11:51:47;2.97;;;2.38;;
69979;SDS011;57318;56.232;43.944;2023-07-13T11:54:32;4.03;;;2.47;;
69979;SDS011;57318;56.232;43.944;2023-07-13T11:57:01;2.35;;;2.00;;
69979;SDS011;57318;56.232;43.944;2023-07-13T11:59:48;4.13;;;2.45;;
69979;SDS011;57318;56.232;43.944;2023-07-13T12:02:28;2.40;;;2.08;;
69979;SDS011;57318;56.232;43.944;2023-07-13T12:04:57;3.38;;;2.45;;
69979;SDS011;57318;56.232;43.944;2023-07-13T12:07:24;2.95;;;2.50;;
69979;SDS011;57318;56.232;43.944;2023-07-13T12:09:53;3.30;;;2.13;;
69979;SDS011;57318;56.232;43.944;2023-07-13T12:12:21;4.00;;;2.00;;
69979;SDS011;57318;56.232;43.944;2023-07-13T12:14:51;4.40;;;2.40;;
69979;SDS011;57318;56.232;43.944;2023-07-13T12:17:19;3.13;;;2.22;;
69979;SDS011;57318;56.232;43.944;2023-07-13T12:19:47;3.47;;;2.22;;
69979;SDS011;57318;56.232;43.944;2023-07-13T12:22:14;5.50;;;2.10;;
69979;SDS011;57318;56.232;43.944;2023-07-13T12:24:42;3.45;;;2.00;;
69979;SDS011;57318;56.232;43.944;2023-07-13T12:27:22;2.80;;;1.90;;
69979;SDS011;57318;56.232;43.944;2023-07-13T12:29:53;3.45;;;2.03;;
69979;SDS011;57318;56.232;43.944;2023-07-13T12:32:43;3.97;;;2.40;;
69979;SDS011;57318;56.232;43.944;2023-07-13T12:35:21;3.90;;;2.00;;
69979;SDS011;57318;56.232;43.944;2023-07-13T12:37:47;5.43;;;2.00;;
69979;SDS011;57318;56.232;43.944;2023-07-13T12:40:16;2.88;;;1.92;;
69979;SDS011;57318;56.232;43.944;2023-07-13T12:42:46;5.95;;;2.10;;
69979;SDS011;57318;56.232;43.944;2023-07-13T12:45:24;4.22;;;2.42;;
69979;SDS011;57318;56.232;43.944;2023-07-13T12:47:54;4.90;;;2.08;;
69979;SDS011;57318;56.232;43.944;2023-07-13T12:50:29;2.70;;;2.08;;
69979;SDS011;57318;56.232;43.944;2023-07-13T12:53:01;3.83;;;2.30;;
69979;SDS011;57318;56.232;43.944;2023-07-13T12:55:29;3.88;;;2.38;;
69979;SDS011;57318;56.232;43.944;2023-07-13T12:57:59;5.60;;;2.22;;
69979;SDS011;57318;56.232;43.944;2023-07-13T13:00:31;3.13;;;2.30;;
69979;SDS011;57318;56.232;43.944;2023-07-13T13:03:16;3.35;;;2.10;;
69979;SDS011;57318;56.232;43.944;2023-07-13T13:05:44;3.42;;;2.25;;
69979;SDS011;57318;56.232;43.944;2023-07-13T13:08:13;6.03;;;2.20;;
69979;SDS011;57318;56.232;43.944;2023-07-13T13:10:40;4.55;;;2.25;;
69979;SDS011;57318;56.232;43.944;2023-07-13T13:13:05;2.83;;;2.17;;
69979;SDS011;57318;56.232;43.944;2023-07-13T13:15:31;6.00;;;2.40;;
69979;SDS011;57318;56.232;43.944;2023-07-13T13:17:58;5.75;;;2.50;;
69979;SDS011;57318;56.232;43.944;2023-07-13T13:20:24;3.30;;;2.50;;
69979;SDS011;57318;56.232;43.944;2023-07-13T13:22:53;3.40;;;2.42;;
69979;SDS011;57318;56.232;43.944;2023-07-13T13:25:19;3.00;;;2.10;;
69979;SDS011;57318;56.232;43.944;2023-07-13T13:27:45;2.63;;;2.20;;
69979;SDS011;57318;56.232;43.944;2023-07-13T13:32:47;2.20;;;1.92;;
69979;SDS011;57318;56.232;43.944;2023-07-13T13:35:20;3.03;;;2.40;;
69979;SDS011;57318;56.232;43.944;2023-07-13T13:37:46;2.85;;;2.10;;
69979;SDS011;57318;56.232;43.944;2023-07-13T13:40:19;3.30;;;2.30;;
69979;SDS011;57318;56.232;43.944;2023-07-13T13:42:48;4.72;;;2.55;;
69979;SDS011;57318;56.232;43.944;2023-07-13T13:45:14;4.25;;;2.45;;
69979;SDS011;57318;56.232;43.944;2023-07-13T13:47:43;4.10;;;2.42;;
69979;SDS011;57318;56.232;43.944;2023-07-13T13:52:44;4.60;;;2.30;;
69979;SDS011;57318;56.232;43.944;2023-07-13T13:55:14;3.17;;;2.42;;
69979;SDS011;57318;56.232;43.944;2023-07-13T13:57:46;5.82;;;2.50;;
69979;SDS011;57318;56.232;43.944;2023-07-13T14:00:13;3.00;;;2.30;;
69979;SDS011;57318;56.232;43.944;2023-07-13T14:02:41;3.70;;;2.40;;
69979;SDS011;57318;56.232;43.944;2023-07-13T14:05:11;2.85;;;2.35;;
69979;SDS011;57318;56.232;43.944;2023-07-13T14:07:38;3.80;;;2.20;;
69979;SDS011;57318;56.232;43.944;2023-07-13T14:10:08;2.77;;;2.23;;
69979;SDS011;57318;56.232;43.944;2023-07-13T14:12:38;3.28;;;2.22;;
69979;SDS011;57318;56.232;43.944;2023-07-13T14:15:04;3.47;;;2.08;;
69979;SDS011;57318;56.232;43.944;2023-07-13T14:17:31;4.22;;;2.13;;
69979;SDS011;57318;56.232;43.944;2023-07-13T14:19:58;4.28;;;2.20;;
69979;SDS011;57318;56.232;43.944;2023-07-13T14:22:24;3.13;;;2.00;;
69979;SDS011;57318;56.232;43.944;2023-07-13T14:27:19;4.32;;;2.15;;
69979;SDS011;57318;56.232;43.944;2023-07-13T14:29:45;2.78;;;1.80;;
69979;SDS011;57318;56.232;43.944;2023-07-13T14:32:12;5.30;;;2.03;;
69979;SDS011;57318;56.232;43.944;2023-07-13T14:34:39;2.88;;;1.90;;
69979;SDS011;57318;56.232;43.944;2023-07-13T14:37:05;3.13;;;2.00;;
69979;SDS011;57318;56.232;43.944;2023-07-13T14:39:37;5.35;;;2.45;;
69979;SDS011;57318;56.232;43.944;2023-07-13T14:42:03;3.78;;;2.10;;
69979;SDS011;57318;56.232;43.944;2023-07-13T14:44:30;4.00;;;2.30;;
69979;SDS011;57318;56.232;43.944;2023-07-13T14:46:57;2.83;;;1.90;;
69979;SDS011;57318;56.232;43.944;2023-07-13T14:51:55;3.45;;;2.00;;
69979;SDS011;57318;56.232;43.944;2023-07-13T14:54:22;3.03;;;2.00;;
69979;SDS011;57318;56.232;43.944;2023-07-13T14:56:48;2.63;;;2.00;;
69979;SDS011;57318;56.232;43.944;2023-07-13T14:59:15;3.05;;;2.25;;
69979;SDS011;57318;56.232;43.944;2023-07-13T15:01:44;5.00;;;2.20;;
69979;SDS011;57318;56.232;43.944;2023-07-13T15:04:11;4.43;;;2.45;;
69979;SDS011;57318;56.232;43.944;2023-07-13T15:09:28;4.20;;;2.30;;
69979;SDS011;57318;56.232;43.944;2023-07-13T15:14:21;3.10;;;2.15;;
69979;SDS011;57318;56.232;43.944;2023-07-13T15:16:49;3.30;;;2.25;;
69979;SDS011;57318;56.232;43.944;2023-07-13T15:19:17;2.63;;;2.10;;
69979;SDS011;57318;56.232;43.944;2023-07-13T15:21:44;5.50;;;2.45;;
69979;SDS011;57318;56.232;43.944;2023-07-13T15:24:10;4.27;;;2.30;;
69979;SDS011;57318;56.232;43.944;2023-07-13T15:26:36;2.95;;;2.35;;
69979;SDS011;57318;56.232;43.944;2023-07-13T15:29:06;10.23;;;3.08;;
69979;SDS011;57318;56.232;43.944;2023-07-13T15:31:32;4.72;;;2.58;;
69979;SDS011;57318;56.232;43.944;2023-07-13T15:33:59;9.05;;;3.10;;
69979;SDS011;57318;56.232;43.944;2023-07-13T15:36:26;5.20;;;2.63;;
69979;SDS011;57318;56.232;43.944;2023-07-13T15:41:20;7.00;;;2.40;;
69979;SDS011;57318;56.232;43.944;2023-07-13T15:43:51;8.57;;;3.38;;
69979;SDS011;57318;56.232;43.944;2023-07-13T15:46:20;4.80;;;2.88;;
69979;SDS011;57318;56.232;43.944;2023-07-13T15:48:51;5.32;;;2.63;;
69979;SDS011;57318;56.232;43.944;2023-07-13T15:51:28;5.20;;;2.17;;
69979;SDS011;57318;56.232;43.944;2023-07-13T15:53:58;3.60;;;2.63;;
69979;SDS011;57318;56.232;43.944;2023-07-13T15:56:32;5.00;;;2.65;;
69979;SDS011;57318;56.232;43.944;2023-07-13T15:59:00;4.15;;;2.28;;
69979;SDS011;57318;56.232;43.944;2023-07-13T16:01:26;3.60;;;2.40;;
69979;SDS011;57318;56.232;43.944;2023-07-13T16:03:58;3.28;;;2.42;;
69979;SDS011;57318;56.232;43.944;2023-07-13T16:06:34;7.50;;;3.05;;
69979;SDS011;57318;56.232;43.944;2023-07-13T16:09:02;5.28;;;2.80;;
69979;SDS011;57318;56.232;43.944;2023-07-13T16:11:37;4.15;;;2.38;;